createdAt,value
2019-02-27T00:00:47.774Z,96896.72
2019-02-27T00:01:52.083Z,96892.24
2019-02-27T00:02:56.174Z,96899.12
2019-02-27T00:04:02.410Z,96895.75
2019-02-27T00:05:08.402Z,96903.94
2019-02-27T00:06:12.945Z,96903.06
2019-02-27T00:07:20.867Z,96900.89
2019-02-27T00:08:26.778Z,96902.31
2019-02-27T00:09:27.734Z,96903.62
2019-02-27T00:10:31.181Z,96897.23
2019-02-27T00:11:34.692Z,96898.13
2019-02-27T00:12:38.141Z,96898.78
2019-02-27T00:13:41.704Z,96894.95
2019-02-27T00:14:45.206Z,96893.98
2019-02-27T00:15:48.702Z,96891.98
2019-02-27T00:16:52.222Z,96893.76
2019-02-27T00:17:55.749Z,96888.08
2019-02-27T00:18:59.392Z,96892.27
2019-02-27T00:20:04.999Z,96890.08
2019-02-27T00:21:10.952Z,96885.05
2019-02-27T00:22:14.942Z,96883.75
2019-02-27T00:23:18.514Z,96883.56
2019-02-27T00:24:21.937Z,96877.68
2019-02-27T00:25:25.371Z,96878.00
2019-02-27T00:26:28.796Z,96875.04
2019-02-27T00:27:32.288Z,96872.09
2019-02-27T00:28:35.747Z,96876.35
2019-02-27T00:29:39.240Z,96873.63
2019-02-27T00:30:42.664Z,96877.22
2019-02-27T00:31:46.192Z,96882.89
2019-02-27T00:32:51.390Z,96878.73
2019-02-27T00:33:59.589Z,96888.44
2019-02-27T00:35:00.158Z,96883.19
2019-02-27T00:36:03.784Z,96883.31
2019-02-27T00:37:07.209Z,96887.05
2019-02-27T00:38:10.661Z,96889.45
2019-02-27T00:39:14.186Z,96882.14
2019-02-27T00:40:17.615Z,96886.39
2019-02-27T00:41:21.063Z,96885.95
2019-02-27T00:42:33.339Z,96879.28
2019-02-27T00:43:29.784Z,96884.86
2019-02-27T00:44:34.710Z,96886.05
2019-02-27T00:45:40.121Z,96883.14
2019-02-27T00:46:43.941Z,96883.13
2019-02-27T00:47:52.790Z,96881.92
2019-02-27T00:48:53.863Z,96882.05
2019-02-27T00:49:57.302Z,96888.49
2019-02-27T00:51:00.753Z,96885.31
2019-02-27T00:52:04.247Z,96884.89
2019-02-27T00:53:07.765Z,96883.90
2019-02-27T00:54:11.192Z,96882.16
2019-02-27T00:55:14.656Z,96883.59
2019-02-27T00:56:18.124Z,96880.75
2019-02-27T00:57:21.616Z,96872.58
2019-02-27T00:58:27.024Z,96873.12
2019-02-27T00:59:32.910Z,96872.59
2019-02-27T01:00:38.949Z,96870.28
2019-02-27T01:01:40.819Z,96866.03
2019-02-27T01:02:44.246Z,96866.23
2019-02-27T01:03:47.747Z,96867.30
2019-02-27T01:04:51.163Z,96866.99
2019-02-27T01:05:54.747Z,96860.12
2019-02-27T01:06:58.180Z,96864.80
2019-02-27T01:08:01.595Z,96858.16
2019-02-27T01:09:07.277Z,96852.38
2019-02-27T01:10:12.863Z,96854.44
2019-02-27T01:11:18.405Z,96854.09
2019-02-27T01:12:22.968Z,96853.89
2019-02-27T01:13:28.949Z,96852.45
2019-02-27T01:14:31.967Z,96846.44
2019-02-27T01:15:35.450Z,96856.92
2019-02-27T01:16:38.910Z,96849.72
2019-02-27T01:17:42.981Z,96847.63
2019-02-27T01:18:46.487Z,96844.02
2019-02-27T01:19:49.917Z,96849.67
2019-02-27T01:20:53.340Z,96847.37
2019-02-27T01:21:56.789Z,96844.63
2019-02-27T01:23:00.217Z,96850.73
2019-02-27T01:24:03.706Z,96836.54
2019-02-27T01:25:07.380Z,96844.61
2019-02-27T01:26:10.877Z,96843.09
2019-02-27T01:27:14.325Z,96840.88
2019-02-27T01:28:17.755Z,96839.33
2019-02-27T01:29:21.251Z,96837.82
2019-02-27T01:30:24.944Z,96839.05
2019-02-27T01:31:28.342Z,96832.38
2019-02-27T01:32:31.854Z,96832.40
2019-02-27T01:33:38.118Z,96832.97
2019-02-27T01:34:44.210Z,96832.94
2019-02-27T01:35:45.691Z,96823.64
2019-02-27T01:36:49.117Z,96826.36
2019-02-27T01:37:52.585Z,96828.23
2019-02-27T01:38:56.013Z,96821.91
2019-02-27T01:39:59.455Z,96817.63
2019-02-27T01:41:02.944Z,96811.19
2019-02-27T01:42:06.370Z,96811.93
2019-02-27T01:43:09.809Z,96810.81
2019-02-27T01:44:13.668Z,96806.99
2019-02-27T01:45:20.622Z,96806.84
2019-02-27T01:46:25.179Z,96801.91
2019-02-27T01:47:28.140Z,96802.59
2019-02-27T01:48:31.582Z,96806.00
2019-02-27T01:49:35.030Z,96804.62
2019-02-27T01:50:38.594Z,96806.80
2019-02-27T01:51:42.031Z,96806.37
2019-02-27T01:52:45.458Z,96809.88
2019-02-27T01:53:48.903Z,96806.37
2019-02-27T01:54:52.360Z,96804.62
2019-02-27T01:55:56.401Z,96803.34
2019-02-27T01:57:02.915Z,96805.54
2019-02-27T01:58:09.280Z,96805.99
2019-02-27T01:59:11.004Z,96802.63
2019-02-27T02:00:14.665Z,96799.77
2019-02-27T02:01:18.111Z,96799.46
2019-02-27T02:02:21.539Z,96804.91
2019-02-27T02:03:25.042Z,96805.78
2019-02-27T02:04:28.555Z,96802.63
2019-02-27T02:05:32.119Z,96796.09
2019-02-27T02:06:35.549Z,96803.08
2019-02-27T02:07:40.302Z,96804.84
2019-02-27T02:08:47.978Z,96796.86
2019-02-27T02:09:52.185Z,96792.48
2019-02-27T02:10:56.159Z,96790.98
2019-02-27T02:12:01.869Z,96791.95
2019-02-27T02:13:14.814Z,96783.75
2019-02-27T02:14:21.966Z,96793.35
2019-02-27T02:15:45.029Z,96791.16
2019-02-27T02:17:00.484Z,96797.40
2019-02-27T02:18:23.432Z,96792.30
2019-02-27T02:20:02.960Z,96791.66
2019-02-27T02:21:25.671Z,96783.91
2019-02-27T02:22:32.160Z,96785.42
2019-02-27T02:23:58.105Z,96785.34
2019-02-27T02:25:20.615Z,96785.78
2019-02-27T02:26:34.751Z,96787.53
2019-02-27T02:28:14.671Z,96787.30
2019-02-27T02:29:40.030Z,96784.05
2019-02-27T02:31:05.032Z,96776.06
2019-02-27T02:32:28.752Z,96778.33
2019-02-27T02:33:43.883Z,96773.55
2019-02-27T02:34:58.869Z,96772.88
2019-02-27T02:36:05.358Z,96775.52
2019-02-27T02:37:17.325Z,96776.25
2019-02-27T02:38:52.116Z,96779.44
2019-02-27T02:40:16.604Z,96783.81
2019-02-27T02:41:46.711Z,96777.81
2019-02-27T02:43:13.935Z,96770.06
2019-02-27T02:44:29.305Z,96767.23
2019-02-27T02:45:44.296Z,96767.23
2019-02-27T02:47:21.273Z,96770.06
2019-02-27T02:48:31.119Z,96769.83
2019-02-27T02:49:50.138Z,96768.54
2019-02-27T02:50:56.621Z,96769.19
2019-02-27T02:52:17.610Z,96765.69
2019-02-27T02:53:38.690Z,96760.13
2019-02-27T02:55:04.212Z,96764.39
2019-02-27T02:56:28.371Z,96764.48
2019-02-27T02:57:37.460Z,96764.27
2019-02-27T02:58:48.432Z,96764.27
2019-02-27T03:00:03.577Z,96695.00
2019-02-27T03:01:15.814Z,96761.55
2019-02-27T03:02:41.249Z,96759.36
2019-02-27T03:03:56.438Z,96762.88
2019-02-27T03:05:23.217Z,96753.48
2019-02-27T03:06:46.140Z,96753.48
2019-02-27T03:08:04.238Z,96755.22
2019-02-27T03:09:22.116Z,96748.13
2019-02-27T03:10:43.855Z,96747.14
2019-02-27T03:11:54.758Z,96747.14
2019-02-27T03:13:41.623Z,96749.23
2019-02-27T03:14:44.353Z,96749.23
2019-02-27T03:15:50.834Z,96748.89
2019-02-27T03:16:59.934Z,96750.09
2019-02-27T03:18:26.267Z,96752.05
2019-02-27T03:19:41.283Z,96748.80
2019-02-27T03:21:17.674Z,96761.11
2019-02-27T03:22:30.087Z,96761.11
2019-02-27T03:23:39.492Z,96754.13
2019-02-27T03:24:51.696Z,96752.17
2019-02-27T03:26:03.650Z,96750.20
2019-02-27T03:27:10.120Z,96750.55
2019-02-27T03:28:22.109Z,96749.88
2019-02-27T03:29:34.435Z,96745.72
2019-02-27T03:31:01.796Z,96739.95
2019-02-27T03:32:11.094Z,96749.21
2019-02-27T03:33:45.756Z,96749.21
2019-02-27T03:35:17.824Z,96753.80
2019-02-27T03:36:46.623Z,96741.05
2019-02-27T03:37:56.150Z,96739.95
2019-02-27T03:39:11.384Z,96737.64
2019-02-27T03:40:20.463Z,96731.66
2019-02-27T03:41:32.605Z,96738.41
2019-02-27T03:42:41.763Z,96734.95
2019-02-27T03:44:02.735Z,96735.56
2019-02-27T03:45:30.639Z,96738.18
2019-02-27T03:46:44.241Z,96740.70
2019-02-27T03:47:53.507Z,96740.70
2019-02-27T03:49:03.729Z,96739.28
2019-02-27T03:50:27.368Z,96744.63
2019-02-27T03:51:36.546Z,96744.63
2019-02-27T03:53:03.861Z,96742.75
2019-02-27T03:54:34.163Z,96742.54
2019-02-27T03:55:57.080Z,96743.72
2019-02-27T03:57:09.466Z,96738.38
2019-02-27T03:58:18.870Z,96742.11
2019-02-27T03:59:34.152Z,96744.48
2019-02-27T04:00:53.006Z,96744.91
2019-02-27T04:02:06.952Z,96739.69
2019-02-27T04:03:18.967Z,96747.30
2019-02-27T04:04:43.484Z,96748.64
2019-02-27T04:05:58.741Z,96739.25
2019-02-27T04:07:31.519Z,96738.95
2019-02-27T04:08:55.596Z,96738.61
2019-02-27T04:09:59.009Z,96739.79
2019-02-27T04:11:05.556Z,96741.63
2019-02-27T04:12:07.672Z,96740.55
2019-02-27T04:13:11.105Z,96739.63
2019-02-27T04:14:28.831Z,96745.30
2019-02-27T04:15:32.394Z,96740.49
2019-02-27T04:16:38.037Z,96744.62
2019-02-27T04:17:39.928Z,96744.08
2019-02-27T04:18:43.348Z,96746.16
2019-02-27T04:19:46.912Z,96749.22
2019-02-27T04:20:51.018Z,96746.62
2019-02-27T04:22:00.560Z,96749.05
2019-02-27T04:22:59.798Z,96748.84
2019-02-27T04:24:03.234Z,96751.80
2019-02-27T04:25:08.301Z,96746.80
2019-02-27T04:26:11.789Z,96749.28
2019-02-27T04:27:20.044Z,96747.77
2019-02-27T04:28:20.455Z,96751.89
2019-02-27T04:29:23.880Z,96749.08
2019-02-27T04:30:27.319Z,96753.11
2019-02-27T04:31:30.823Z,96746.02
2019-02-27T04:32:34.295Z,96746.22
2019-02-27T04:33:37.741Z,96741.95
2019-02-27T04:34:41.171Z,96742.84
2019-02-27T04:35:44.644Z,96744.92
2019-02-27T04:36:48.060Z,96744.72
2019-02-27T04:37:53.861Z,96742.20
2019-02-27T04:38:56.675Z,96742.00
2019-02-27T04:40:00.125Z,96741.23
2019-02-27T04:41:03.608Z,96739.05
2019-02-27T04:42:07.114Z,96746.13
2019-02-27T04:43:10.576Z,96743.62
2019-02-27T04:44:14.000Z,96735.66
2019-02-27T04:45:17.500Z,96746.22
2019-02-27T04:46:21.665Z,96741.61
2019-02-27T04:47:28.886Z,96745.53
2019-02-27T04:48:31.039Z,96745.92
2019-02-27T04:49:34.822Z,96747.15
2019-02-27T04:50:41.733Z,96742.39
2019-02-27T04:51:44.980Z,96743.03
2019-02-27T04:52:48.404Z,96744.67
2019-02-27T04:53:51.859Z,96743.02
2019-02-27T04:54:55.367Z,96742.44
2019-02-27T04:55:58.876Z,96739.42
2019-02-27T04:57:02.304Z,96738.75
2019-02-27T04:58:08.585Z,96739.95
2019-02-27T04:59:10.939Z,96731.34
2019-02-27T05:00:14.521Z,96737.86
2019-02-27T05:01:18.013Z,96739.03
2019-02-27T05:02:21.441Z,96735.20
2019-02-27T05:03:25.840Z,96739.36
2019-02-27T05:04:34.892Z,96737.97
2019-02-27T05:05:35.210Z,96739.18
2019-02-27T05:06:38.633Z,96743.45
2019-02-27T05:07:42.081Z,96740.94
2019-02-27T05:08:45.502Z,96740.93
2019-02-27T05:09:48.961Z,96742.66
2019-02-27T05:10:52.469Z,96739.55
2019-02-27T05:11:55.895Z,96735.08
2019-02-27T05:12:59.326Z,96741.96
2019-02-27T05:14:02.823Z,96749.71
2019-02-27T05:15:08.403Z,96745.55
2019-02-27T05:16:14.050Z,96741.17
2019-02-27T05:17:21.156Z,96741.48
2019-02-27T05:18:22.240Z,96742.39
2019-02-27T05:19:25.672Z,96743.45
2019-02-27T05:20:29.132Z,96744.66
2019-02-27T05:21:32.595Z,96738.84
2019-02-27T05:22:36.113Z,96743.30
2019-02-27T05:23:39.547Z,96741.44
2019-02-27T05:24:42.979Z,96738.59
2019-02-27T05:25:46.443Z,96739.89
2019-02-27T05:26:49.879Z,96738.83
2019-02-27T05:27:53.317Z,96740.13
2019-02-27T05:28:56.745Z,96733.27
2019-02-27T05:30:00.425Z,96731.70
2019-02-27T05:31:03.950Z,96735.61
2019-02-27T05:32:07.449Z,96735.77
2019-02-27T05:33:10.883Z,96735.46
2019-02-27T05:34:14.311Z,96737.25
2019-02-27T05:35:18.077Z,96735.52
2019-02-27T05:36:21.598Z,96737.88
2019-02-27T05:37:25.132Z,96737.96
2019-02-27T05:38:28.701Z,96732.72
2019-02-27T05:39:33.807Z,96742.91
2019-02-27T05:40:37.376Z,96745.27
2019-02-27T05:41:40.929Z,96744.84
2019-02-27T05:42:44.506Z,96743.75
2019-02-27T05:43:48.677Z,96742.97
2019-02-27T05:44:55.693Z,96741.23
2019-02-27T05:45:57.585Z,96744.70
2019-02-27T05:47:01.170Z,96744.88
2019-02-27T05:48:04.666Z,96749.33
2019-02-27T05:49:08.232Z,96744.79
2019-02-27T05:50:12.720Z,96743.06
2019-02-27T05:51:16.222Z,96744.14
2019-02-27T05:52:19.676Z,96746.54
2019-02-27T05:53:23.188Z,96743.45
2019-02-27T05:54:26.720Z,96744.70
2019-02-27T05:55:30.132Z,96747.77
2019-02-27T05:56:33.637Z,96746.02
2019-02-27T05:57:37.163Z,96747.97
2019-02-27T05:58:40.762Z,96746.06
2019-02-27T05:59:44.199Z,96748.59
2019-02-27T06:00:47.762Z,96754.62
2019-02-27T06:01:51.339Z,96751.88
2019-02-27T06:02:56.725Z,96754.70
2019-02-27T06:04:00.082Z,96755.30
2019-02-27T06:05:04.559Z,96752.72
2019-02-27T06:06:11.528Z,96759.22
2019-02-27T06:07:18.632Z,96758.36
2019-02-27T06:08:20.091Z,96759.42
2019-02-27T06:09:23.511Z,96755.66
2019-02-27T06:10:27.012Z,96763.84
2019-02-27T06:11:33.018Z,96767.28
2019-02-27T06:12:38.166Z,96764.94
2019-02-27T06:13:40.960Z,96766.23
2019-02-27T06:14:44.449Z,96758.41
2019-02-27T06:15:49.210Z,96764.81
2019-02-27T06:16:52.725Z,96755.70
2019-02-27T06:17:56.314Z,96766.56
2019-02-27T06:18:59.779Z,96764.13
2019-02-27T06:20:07.717Z,96773.24
2019-02-27T06:21:08.544Z,96765.62
2019-02-27T06:22:11.966Z,96757.73
2019-02-27T06:23:15.407Z,96764.98
2019-02-27T06:24:18.850Z,96763.22
2019-02-27T06:25:23.949Z,96758.86
2019-02-27T06:26:27.421Z,96756.70
2019-02-27T06:27:31.689Z,96759.34
2019-02-27T06:28:35.130Z,96759.34
2019-02-27T06:29:38.589Z,96752.84
2019-02-27T06:30:42.023Z,96765.50
2019-02-27T06:31:45.448Z,96766.22
2019-02-27T06:32:48.948Z,96756.66
2019-02-27T06:33:52.477Z,96760.11
2019-02-27T06:34:59.278Z,96761.83
2019-02-27T06:36:01.146Z,96762.54
2019-02-27T06:37:04.739Z,96762.56
2019-02-27T06:38:08.237Z,96762.56
2019-02-27T06:39:11.704Z,96766.56
2019-02-27T06:40:18.227Z,96767.16
2019-02-27T06:41:21.938Z,96765.44
2019-02-27T06:42:25.463Z,96766.59
2019-02-27T06:43:29.050Z,96761.74
2019-02-27T06:44:32.859Z,96764.14
2019-02-27T06:45:36.903Z,96767.20
2019-02-27T06:46:40.502Z,96765.45
2019-02-27T06:47:44.111Z,96764.59
2019-02-27T06:48:47.838Z,96772.87
2019-02-27T06:49:51.941Z,96766.06
2019-02-27T06:50:58.311Z,96769.78
2019-02-27T06:52:01.533Z,96770.49
2019-02-27T06:53:05.699Z,96770.67
2019-02-27T06:54:09.197Z,96769.37
2019-02-27T06:55:14.001Z,96775.09
2019-02-27T06:56:18.062Z,96771.20
2019-02-27T06:57:22.318Z,96772.72
2019-02-27T06:58:25.868Z,96770.58
2019-02-27T06:59:29.308Z,96770.88
2019-02-27T07:00:36.767Z,96775.16
2019-02-27T07:01:38.728Z,96776.05
2019-02-27T07:02:42.529Z,96780.02
2019-02-27T07:03:46.100Z,96776.15
2019-02-27T07:04:50.096Z,96776.59
2019-02-27T07:05:53.806Z,96776.01
2019-02-27T07:06:58.060Z,96768.13
2019-02-27T07:08:02.160Z,96769.07
2019-02-27T07:09:11.305Z,96772.39
2019-02-27T07:10:19.633Z,96773.66
2019-02-27T07:11:20.300Z,96770.73
2019-02-27T07:12:23.816Z,96771.33
2019-02-27T07:13:29.865Z,96773.70
2019-02-27T07:14:32.908Z,96765.44
2019-02-27T07:15:36.696Z,96773.17
2019-02-27T07:16:40.328Z,96769.83
2019-02-27T07:17:44.005Z,96775.78
2019-02-27T07:18:47.445Z,96775.44
2019-02-27T07:19:50.872Z,96774.78
2019-02-27T07:20:55.632Z,96773.05
2019-02-27T07:21:59.629Z,96771.19
2019-02-27T07:23:03.225Z,96769.05
2019-02-27T07:24:07.092Z,96771.53
2019-02-27T07:25:15.197Z,96773.28
2019-02-27T07:26:18.724Z,96772.38
2019-02-27T07:27:22.175Z,96774.81
2019-02-27T07:28:25.620Z,96772.52
2019-02-27T07:29:29.161Z,96768.20
2019-02-27T07:30:32.660Z,96769.31
2019-02-27T07:31:36.088Z,96773.77
2019-02-27T07:32:39.540Z,96764.05
2019-02-27T07:33:42.994Z,96762.29
2019-02-27T07:34:49.481Z,96767.75
2019-02-27T07:35:51.602Z,96761.66
2019-02-27T07:36:55.038Z,96762.63
2019-02-27T07:37:58.505Z,96761.77
2019-02-27T07:39:01.952Z,96763.95
2019-02-27T07:40:11.033Z,96758.86
2019-02-27T07:41:17.536Z,96761.34
2019-02-27T07:42:19.662Z,96764.53
2019-02-27T07:43:23.136Z,96759.11
2019-02-27T07:44:26.605Z,96754.55
2019-02-27T07:45:30.044Z,96754.98
2019-02-27T07:46:35.503Z,96748.41
2019-02-27T07:47:38.676Z,96756.06
2019-02-27T07:48:42.164Z,96759.22
2019-02-27T07:49:45.648Z,96750.49
2019-02-27T07:50:49.353Z,96749.66
2019-02-27T07:51:57.118Z,96749.66
2019-02-27T07:52:57.897Z,96746.27
2019-02-27T07:54:01.355Z,96748.65
2019-02-27T07:55:18.593Z,96747.91
2019-02-27T07:56:12.088Z,96745.19
2019-02-27T07:57:15.593Z,96751.19
2019-02-27T07:58:19.028Z,96750.75
2019-02-27T07:59:22.495Z,96750.19
2019-02-27T08:00:26.509Z,96753.47
2019-02-27T08:01:30.102Z,96754.03
2019-02-27T08:02:33.773Z,96753.05
2019-02-27T08:03:38.809Z,96751.06
2019-02-27T08:04:42.370Z,96751.52
2019-02-27T08:05:45.806Z,96750.41
2019-02-27T08:06:49.237Z,96745.83
2019-02-27T08:07:52.663Z,96753.02
2019-02-27T08:08:57.190Z,96756.41
2019-02-27T08:10:04.613Z,96756.84
2019-02-27T08:11:06.487Z,96754.11
2019-02-27T08:12:10.026Z,96762.41
2019-02-27T08:13:13.476Z,96753.79
2019-02-27T08:14:16.891Z,96755.20
2019-02-27T08:15:20.691Z,96751.48
2019-02-27T08:16:24.193Z,96751.92
2019-02-27T08:17:27.633Z,96745.80
2019-02-27T08:18:36.650Z,96751.59
2019-02-27T08:19:36.423Z,96749.14
2019-02-27T08:20:39.968Z,96749.26
2019-02-27T08:21:43.407Z,96747.05
2019-02-27T08:22:46.926Z,96747.90
2019-02-27T08:23:50.558Z,96748.98
2019-02-27T08:24:54.081Z,96748.98
2019-02-27T08:25:57.533Z,96745.70
2019-02-27T08:27:01.116Z,96745.91
2019-02-27T08:28:04.635Z,96746.33
2019-02-27T08:29:08.160Z,96747.75
2019-02-27T08:30:26.936Z,96737.89
2019-02-27T08:31:32.034Z,96742.14
2019-02-27T08:32:35.656Z,96747.34
2019-02-27T08:33:39.339Z,96745.45
2019-02-27T08:34:42.779Z,96744.26
2019-02-27T08:35:46.224Z,96737.47
2019-02-27T08:36:49.756Z,96737.89
2019-02-27T08:38:02.078Z,96738.94
2019-02-27T08:38:58.631Z,96734.76
2019-02-27T08:40:02.148Z,96734.95
2019-02-27T08:41:05.594Z,96734.95
2019-02-27T08:42:09.121Z,96733.36
2019-02-27T08:43:12.584Z,96734.78
2019-02-27T08:44:16.047Z,96734.78
2019-02-27T08:45:26.801Z,96733.23
2019-02-27T08:46:27.897Z,96735.50
2019-02-27T08:47:31.372Z,96728.89
2019-02-27T08:48:34.827Z,96730.28
2019-02-27T08:49:38.255Z,96725.55
2019-02-27T08:50:43.293Z,96724.60
2019-02-27T08:51:46.923Z,96730.92
2019-02-27T08:53:59.027Z,96728.66
2019-02-27T08:55:05.374Z,96727.29
2019-02-27T08:56:05.982Z,96725.72
2019-02-27T08:57:09.493Z,96719.38
2019-02-27T08:58:13.078Z,96720.69
2019-02-27T08:59:16.607Z,96715.86
2019-02-27T09:00:28.207Z,96716.27
2019-02-27T09:01:31.770Z,96716.14
2019-02-27T09:02:35.275Z,96713.23
2019-02-27T09:03:39.000Z,96708.69
2019-02-27T09:04:42.850Z,96706.38
2019-02-27T09:05:47.800Z,96704.51
2019-02-27T09:06:51.263Z,96708.45
2019-02-27T09:07:54.850Z,96707.20
2019-02-27T09:08:58.395Z,96704.38
2019-02-27T09:10:01.988Z,96702.58
2019-02-27T09:11:06.551Z,96703.41
2019-02-27T09:12:13.173Z,96708.54
2019-02-27T09:13:15.491Z,96698.72
2019-02-27T09:14:18.945Z,96700.54
2019-02-27T09:15:22.394Z,96696.66
2019-02-27T09:16:26.115Z,96695.13
2019-02-27T09:17:31.196Z,96696.52
2019-02-27T09:18:36.500Z,96699.08
2019-02-27T09:19:44.958Z,96701.22
2019-02-27T09:20:45.076Z,96695.35
2019-02-27T09:21:48.505Z,96690.38
2019-02-27T09:22:52.038Z,96692.70
2019-02-27T09:23:55.469Z,96689.39
2019-02-27T09:24:59.009Z,96686.27
2019-02-27T09:26:03.537Z,96683.50
2019-02-27T09:27:07.081Z,96681.28
2019-02-27T09:28:10.525Z,96681.28
2019-02-27T09:29:18.401Z,96687.36
2019-02-27T09:30:28.981Z,96685.36
2019-02-27T09:31:29.143Z,96682.23
2019-02-27T09:32:32.582Z,96679.25
2019-02-27T09:33:38.717Z,96675.38
2019-02-27T09:34:41.977Z,96680.34
2019-02-27T09:35:45.511Z,96668.84
2019-02-27T09:36:49.231Z,96673.25
2019-02-27T09:37:52.686Z,96667.12
2019-02-27T09:38:57.576Z,96670.52
2019-02-27T09:40:04.818Z,96668.70
2019-02-27T09:41:06.488Z,96659.34
2019-02-27T09:42:09.998Z,96660.57
2019-02-27T09:43:16.668Z,96664.64
2019-02-27T09:44:22.971Z,96663.58
2019-02-27T09:45:28.053Z,96660.95
2019-02-27T09:46:31.516Z,96655.49
2019-02-27T09:47:35.104Z,96657.77
2019-02-27T09:48:38.543Z,96662.74
2019-02-27T09:49:42.044Z,96663.00
2019-02-27T09:50:48.366Z,96660.20
2019-02-27T09:51:55.882Z,96661.03
2019-02-27T09:52:57.229Z,96655.66
2019-02-27T09:54:00.738Z,96661.95
2019-02-27T09:55:04.544Z,96665.06
2019-02-27T09:56:08.070Z,96657.96
2019-02-27T09:57:11.528Z,96653.05
2019-02-27T09:58:15.042Z,96650.31
2019-02-27T09:59:19.781Z,96653.98
2019-02-27T10:00:37.672Z,96647.03
2019-02-27T10:01:41.211Z,96650.53
2019-02-27T10:02:46.295Z,96649.61
2019-02-27T10:03:51.990Z,96648.70
2019-02-27T10:04:55.083Z,96647.05
2019-02-27T10:05:58.678Z,96648.99
2019-02-27T10:07:02.211Z,96644.86
2019-02-27T10:08:07.562Z,96643.36
2019-02-27T10:09:14.197Z,96635.20
2019-02-27T10:10:17.707Z,96643.77
2019-02-27T10:11:22.365Z,96635.45
2019-02-27T10:12:27.774Z,96633.70
2019-02-27T10:13:31.505Z,96632.87
2019-02-27T10:14:35.015Z,96626.14
2019-02-27T10:15:38.530Z,96631.81
2019-02-27T10:16:42.045Z,96625.41
2019-02-27T10:17:45.732Z,96615.66
2019-02-27T10:18:49.109Z,96618.77
2019-02-27T10:19:52.538Z,96625.72
2019-02-27T10:20:56.441Z,96617.75
2019-02-27T10:21:59.991Z,96618.48
2019-02-27T10:23:03.592Z,96618.52
2019-02-27T10:24:07.128Z,96621.95
2019-02-27T10:25:10.858Z,96617.14
2019-02-27T10:26:16.577Z,96619.20
2019-02-27T10:27:19.664Z,96617.57
2019-02-27T10:28:23.282Z,96620.09
2019-02-27T10:29:26.747Z,96610.03
2019-02-27T10:30:30.512Z,96605.20
2019-02-27T10:31:34.009Z,96607.39
2019-02-27T10:32:37.549Z,96607.42
2019-02-27T10:33:42.964Z,96605.62
2019-02-27T10:34:46.214Z,96606.53
2019-02-27T10:35:49.648Z,96603.27
2019-02-27T10:36:53.188Z,96604.63
2019-02-27T10:37:56.883Z,96604.56
2019-02-27T10:39:02.034Z,96604.54
2019-02-27T10:40:17.252Z,96606.75
2019-02-27T10:41:23.252Z,96594.37
2019-02-27T10:42:26.927Z,96602.91
2019-02-27T10:43:30.609Z,96602.37
2019-02-27T10:44:34.531Z,96597.48
2019-02-27T10:45:38.134Z,96607.48
2019-02-27T10:46:41.615Z,96598.26
2019-02-27T10:47:45.428Z,96592.69
2019-02-27T10:48:49.175Z,96598.05
2019-02-27T10:49:53.034Z,96591.92
2019-02-27T10:50:56.722Z,96589.19
2019-02-27T10:52:00.359Z,96587.08
2019-02-27T10:53:04.381Z,96576.89
2019-02-27T10:54:08.190Z,96569.88
2019-02-27T10:55:14.873Z,96575.70
2019-02-27T10:56:18.281Z,96584.00
2019-02-27T10:57:21.732Z,96581.56
2019-02-27T10:58:25.168Z,96579.62
2019-02-27T10:59:28.668Z,96578.27
2019-02-27T11:00:33.232Z,96577.47
2019-02-27T11:01:37.069Z,96576.55
2019-02-27T11:02:40.874Z,96571.09
2019-02-27T11:03:44.449Z,96576.20
2019-02-27T11:04:49.967Z,96567.36
2019-02-27T11:05:55.551Z,96569.23
2019-02-27T11:06:59.095Z,96572.53
2019-02-27T11:08:02.926Z,96571.95
2019-02-27T11:09:08.949Z,96567.25
2019-02-27T11:10:12.930Z,96577.45
2019-02-27T11:11:16.656Z,96581.22
2019-02-27T11:12:20.189Z,96582.37
2019-02-27T11:13:23.862Z,96573.33
2019-02-27T11:14:31.740Z,96581.66
2019-02-27T11:15:33.149Z,96574.49
2019-02-27T11:16:36.684Z,96556.32
2019-02-27T11:17:40.416Z,96558.40
2019-02-27T11:18:43.888Z,96551.97
2019-02-27T11:19:48.893Z,96551.03
2019-02-27T11:20:55.728Z,96546.49
2019-02-27T11:21:59.177Z,96542.89
2019-02-27T11:23:06.727Z,96542.16
2019-02-27T11:24:07.847Z,96543.09
2019-02-27T11:25:14.338Z,96542.70
2019-02-27T11:26:17.872Z,96539.11
2019-02-27T11:27:21.313Z,96538.13
2019-02-27T11:28:24.749Z,96537.55
2019-02-27T11:29:28.321Z,96533.76
2019-02-27T11:30:36.804Z,96526.95
2019-02-27T11:31:42.303Z,96534.72
2019-02-27T11:32:45.271Z,96534.16
2019-02-27T11:33:48.801Z,96529.60
2019-02-27T11:34:52.247Z,96523.70
2019-02-27T11:35:55.754Z,96524.86
2019-02-27T11:36:59.216Z,96520.28
2019-02-27T11:38:02.768Z,96524.27
2019-02-27T11:39:07.072Z,96516.08
2019-02-27T11:40:13.354Z,96524.39
2019-02-27T11:41:16.856Z,96523.02
2019-02-27T11:42:20.326Z,96518.50
2019-02-27T11:43:24.003Z,96517.17
2019-02-27T11:44:27.531Z,96510.48
2019-02-27T11:45:31.046Z,96506.48
2019-02-27T11:46:35.125Z,96513.51
2019-02-27T11:47:44.693Z,96507.81
2019-02-27T11:48:45.028Z,96506.05
2019-02-27T11:49:48.548Z,96509.17
2019-02-27T11:50:52.362Z,96508.70
2019-02-27T11:51:57.027Z,96506.05
2019-02-27T11:53:02.709Z,96506.48
2019-02-27T11:54:08.256Z,96499.14
2019-02-27T11:55:14.838Z,96501.14
2019-02-27T11:56:20.318Z,96504.14
2019-02-27T11:57:24.318Z,96497.09
2019-02-27T11:58:27.798Z,96489.38
2019-02-27T11:59:31.243Z,96492.03
2019-02-27T12:00:34.830Z,96493.00
2019-02-27T12:01:38.352Z,96488.33
2019-02-27T12:02:41.924Z,96486.95
2019-02-27T12:03:45.945Z,96485.43
2019-02-27T12:04:53.484Z,96487.81
2019-02-27T12:05:55.406Z,96480.10
2019-02-27T12:06:58.857Z,96483.30
2019-02-27T12:08:02.289Z,96477.67
2019-02-27T12:09:07.571Z,96471.53
2019-02-27T12:10:16.772Z,96478.25
2019-02-27T12:11:20.211Z,96472.10
2019-02-27T12:12:24.164Z,96472.03
2019-02-27T12:13:27.677Z,96468.92
2019-02-27T12:14:31.231Z,96458.85
2019-02-27T12:15:34.770Z,96467.40
2019-02-27T12:16:38.211Z,96467.98
2019-02-27T12:17:41.727Z,96466.34
2019-02-27T12:18:45.169Z,96459.36
2019-02-27T12:19:48.734Z,96461.73
2019-02-27T12:20:53.927Z,96458.03
2019-02-27T12:22:00.222Z,96460.64
2019-02-27T12:23:02.766Z,96452.98
2019-02-27T12:24:06.270Z,96454.08
2019-02-27T12:25:15.005Z,96448.80
2019-02-27T12:26:18.528Z,96448.00
2019-02-27T12:27:47.409Z,96444.91
2019-02-27T12:28:27.381Z,96446.29
2019-02-27T12:29:30.970Z,96445.20
2019-02-27T12:30:37.118Z,96445.09
2019-02-27T12:31:40.016Z,96439.63
2019-02-27T12:32:43.621Z,96434.18
2019-02-27T12:33:47.157Z,96446.90
2019-02-27T12:34:50.733Z,96431.81
2019-02-27T12:35:54.363Z,96435.55
2019-02-27T12:36:57.957Z,96430.19
2019-02-27T12:38:01.403Z,96424.64
2019-02-27T12:39:06.588Z,96428.48
2019-02-27T12:40:15.714Z,96430.09
2019-02-27T12:41:19.249Z,96420.23
2019-02-27T12:42:22.754Z,96422.08
2019-02-27T12:43:26.253Z,96407.34
2019-02-27T12:44:29.793Z,96414.48
2019-02-27T12:45:33.402Z,96409.23
2019-02-27T12:46:37.098Z,96409.91
2019-02-27T12:47:41.384Z,96408.21
2019-02-27T12:48:46.431Z,96407.53
2019-02-27T12:49:51.571Z,96415.61
2019-02-27T12:50:55.383Z,96416.38
2019-02-27T12:51:58.956Z,96414.00
2019-02-27T12:53:02.646Z,96408.27
2019-02-27T12:54:06.195Z,96405.13
2019-02-27T12:55:10.355Z,96403.14
2019-02-27T12:56:13.942Z,96404.48